createdAt,value
2022-10-02T00:00:48.538Z,57077.35
2022-10-02T00:01:51.371Z,57165.62
2022-10-02T00:02:54.296Z,57337.15
2022-10-02T00:03:57.215Z,57242.86
2022-10-02T00:05:00.147Z,57164.61
2022-10-02T00:06:03.016Z,56957.98
2022-10-02T00:07:09.072Z,56686.17
2022-10-02T00:08:12.044Z,56637.02
2022-10-02T00:09:14.815Z,56694.19
2022-10-02T00:10:17.585Z,56830.60
2022-10-02T00:11:20.371Z,57256.90
2022-10-02T00:12:23.231Z,57635.09
2022-10-02T00:13:26.012Z,57927.04
2022-10-02T00:14:28.880Z,58069.51
2022-10-02T00:15:31.374Z,58270.18
2022-10-02T00:16:34.336Z,58286.23
2022-10-02T00:17:37.611Z,58432.73
2022-10-02T00:18:40.380Z,58473.87
2022-10-02T00:19:43.147Z,58600.30
2022-10-02T00:20:45.930Z,58612.34
2022-10-02T00:21:48.700Z,58514.00
2022-10-02T00:22:51.264Z,58700.65
2022-10-02T00:23:54.032Z,58702.66
2022-10-02T00:24:56.905Z,58681.58
2022-10-02T00:25:59.682Z,58661.51
2022-10-02T00:27:02.691Z,58597.29
2022-10-02T00:28:05.462Z,58439.75
2022-10-02T00:29:08.201Z,58315.33
2022-10-02T00:30:11.189Z,58425.70
2022-10-02T00:31:13.851Z,58344.43
2022-10-02T00:32:16.931Z,58404.63
2022-10-02T00:33:19.603Z,58573.21
2022-10-02T00:34:22.379Z,58514.00
2022-10-02T00:35:25.156Z,58588.26
2022-10-02T00:36:28.019Z,58293.26
2022-10-02T00:37:30.792Z,58097.60
2022-10-02T00:38:33.471Z,57754.48
2022-10-02T00:39:36.131Z,57480.60
2022-10-02T00:40:39.209Z,57427.43
2022-10-02T00:41:41.981Z,57344.17
2022-10-02T00:42:44.663Z,57125.50
2022-10-02T00:43:47.428Z,56915.86
2022-10-02T00:44:50.316Z,57086.37
2022-10-02T00:45:52.964Z,57138.54
2022-10-02T00:46:55.650Z,57220.79
2022-10-02T00:47:58.512Z,57471.57
2022-10-02T00:49:01.400Z,57644.12
2022-10-02T00:50:04.061Z,57798.62
2022-10-02T00:51:06.732Z,57690.27
2022-10-02T00:52:09.392Z,57418.41
2022-10-02T00:53:12.179Z,57456.53
2022-10-02T00:54:14.951Z,57647.13
2022-10-02T00:55:17.819Z,57755.48
2022-10-02T00:56:20.698Z,58011.32
2022-10-02T00:57:23.775Z,58172.85
2022-10-02T00:58:26.335Z,58308.31
2022-10-02T00:59:29.224Z,58365.50
2022-10-02T01:00:31.784Z,58406.64
2022-10-02T01:01:34.980Z,58376.54
2022-10-02T01:02:37.738Z,58342.42
2022-10-02T01:03:40.608Z,58391.59
2022-10-02T01:04:43.489Z,58353.46
2022-10-02T01:05:46.471Z,58055.46
2022-10-02T01:06:49.649Z,57957.14
2022-10-02T01:07:52.211Z,57393.33
2022-10-02T01:08:55.294Z,56780.45
2022-10-02T01:09:58.474Z,56362.22
2022-10-02T01:11:01.340Z,55978.13
2022-10-02T01:12:04.443Z,56117.52
2022-10-02T01:13:07.109Z,56437.44
2022-10-02T01:14:10.301Z,56600.92
2022-10-02T01:15:13.259Z,56813.55
2022-10-02T01:16:16.640Z,57138.54
2022-10-02T01:17:19.527Z,57439.47
2022-10-02T01:18:22.501Z,57590.95
2022-10-02T01:19:25.067Z,57800.63
2022-10-02T01:20:27.738Z,58132.72
2022-10-02T01:21:30.608Z,58132.72
2022-10-02T01:22:33.172Z,58226.03
2022-10-02T01:23:36.148Z,58366.50
2022-10-02T01:24:39.229Z,58531.06
2022-10-02T01:25:42.431Z,58492.93
2022-10-02T01:26:45.179Z,58559.16
2022-10-02T01:27:48.834Z,58651.48
2022-10-02T01:28:51.880Z,58612.34
2022-10-02T01:29:55.344Z,58716.70
2022-10-02T01:30:58.338Z,58724.73
2022-10-02T01:32:01.644Z,58709.68
2022-10-02T01:33:04.583Z,58671.55
2022-10-02T01:34:07.866Z,58760.86
2022-10-02T01:35:10.648Z,58656.50
2022-10-02T01:36:13.619Z,58662.52
2022-10-02T01:37:16.492Z,58685.60
2022-10-02T01:38:19.480Z,58697.64
2022-10-02T01:39:22.657Z,58675.56
2022-10-02T01:40:25.754Z,58668.54
2022-10-02T01:41:28.499Z,58542.10
2022-10-02T01:42:31.372Z,58549.12
2022-10-02T01:43:34.352Z,58351.45
2022-10-02T01:44:37.640Z,58266.16
2022-10-02T01:45:40.888Z,57998.27
2022-10-02T01:46:43.705Z,58043.42
2022-10-02T01:47:47.379Z,58002.29
2022-10-02T01:48:50.769Z,57934.06
2022-10-02T01:49:53.759Z,57869.85
2022-10-02T01:50:56.729Z,57803.64
2022-10-02T01:51:59.615Z,57670.21
2022-10-02T01:53:02.388Z,57399.35
2022-10-02T01:54:05.364Z,57254.89
2022-10-02T01:55:08.442Z,57154.59
2022-10-02T01:56:11.411Z,56975.04
2022-10-02T01:57:14.392Z,56919.87
2022-10-02T01:58:17.478Z,56801.51
2022-10-02T01:59:20.768Z,56986.07
2022-10-02T02:00:23.824Z,56953.97
2022-10-02T02:01:26.541Z,56790.48
2022-10-02T02:02:29.823Z,56756.38
2022-10-02T02:03:32.878Z,56686.17
2022-10-02T02:04:36.257Z,56492.60
2022-10-02T02:05:39.328Z,56364.23
2022-10-02T02:06:42.300Z,56340.16
2022-10-02T02:07:47.854Z,56318.09
2022-10-02T02:08:51.542Z,56228.84
2022-10-02T02:09:54.820Z,56106.49
2022-10-02T02:10:57.907Z,56102.48
2022-10-02T02:12:01.912Z,56081.42
2022-10-02T02:13:05.043Z,55891.89
2022-10-02T02:14:07.855Z,55906.93
2022-10-02T02:15:10.532Z,56035.29
2022-10-02T02:16:13.541Z,56110.50
2022-10-02T02:17:16.682Z,56111.51
2022-10-02T02:18:19.351Z,56123.54
2022-10-02T02:19:22.123Z,55823.71
2022-10-02T02:20:24.900Z,55902.93
2022-10-02T02:21:27.784Z,56030.28
2022-10-02T02:22:30.865Z,55702.37
2022-10-02T02:23:33.828Z,55610.12
2022-10-02T02:24:36.710Z,55664.27
2022-10-02T02:25:39.370Z,55742.48
2022-10-02T02:26:42.459Z,55820.70
2022-10-02T02:27:45.278Z,56135.57
2022-10-02T02:28:48.201Z,56261.93
2022-10-02T02:29:51.170Z,55985.15
2022-10-02T02:30:54.665Z,55784.60
2022-10-02T02:31:57.840Z,55455.71
2022-10-02T02:33:00.825Z,55656.25
2022-10-02T02:34:04.039Z,55684.32
2022-10-02T02:35:07.411Z,55900.92
2022-10-02T02:36:10.681Z,56271.96
2022-10-02T02:37:14.273Z,56488.59
2022-10-02T02:38:17.971Z,56436.44
2022-10-02T02:39:20.839Z,56796.50
2022-10-02T02:40:24.041Z,57080.36
2022-10-02T02:41:27.301Z,57256.90
2022-10-02T02:42:30.405Z,57618.04
2022-10-02T02:43:33.466Z,57987.24
2022-10-02T02:44:36.442Z,58178.87
2022-10-02T02:45:39.454Z,58301.28
2022-10-02T02:46:42.611Z,58539.09
2022-10-02T02:47:45.584Z,58732.76
2022-10-02T02:48:50.548Z,58833.11
2022-10-02T02:49:54.004Z,58922.43
2022-10-02T02:50:56.871Z,58949.52
2022-10-02T02:52:00.581Z,59040.84
2022-10-02T02:53:03.851Z,59138.19
2022-10-02T02:54:06.926Z,59089.02
2022-10-02T02:55:10.109Z,59141.20
2022-10-02T02:56:12.984Z,59122.13
2022-10-02T02:57:16.062Z,59054.89
2022-10-02T02:58:19.043Z,59040.84
2022-10-02T02:59:21.806Z,59066.94
2022-10-02T03:00:25.199Z,59165.29
2022-10-02T03:01:28.154Z,59038.84
2022-10-02T03:02:31.393Z,59183.35
2022-10-02T03:03:34.652Z,59112.10
2022-10-02T03:04:37.416Z,59136.18
2022-10-02T03:05:40.394Z,59169.30
2022-10-02T03:06:43.483Z,59217.48
2022-10-02T03:07:47.081Z,59279.70
2022-10-02T03:08:50.264Z,59349.95
2022-10-02T03:09:53.423Z,59324.86
2022-10-02T03:10:56.607Z,59404.15
2022-10-02T03:11:59.391Z,59372.04
2022-10-02T03:13:02.459Z,59465.37
2022-10-02T03:14:05.336Z,59540.65
2022-10-02T03:15:08.325Z,59702.25
2022-10-02T03:16:11.869Z,59682.18
2022-10-02T03:17:14.779Z,59790.58
2022-10-02T03:18:18.795Z,59768.50
2022-10-02T03:19:21.448Z,59839.77
2022-10-02T03:20:24.428Z,59807.64
2022-10-02T03:21:27.524Z,59696.23
2022-10-02T03:22:30.586Z,59672.14
2022-10-02T03:23:33.686Z,59666.11
2022-10-02T03:24:36.806Z,59640.02
2022-10-02T03:25:40.025Z,59573.77
2022-10-02T03:26:42.894Z,59416.20
2022-10-02T03:27:45.866Z,59362.00
2022-10-02T03:28:56.145Z,59302.79
2022-10-02T03:29:53.884Z,59297.77
2022-10-02T03:30:56.965Z,59317.84
2022-10-02T03:32:00.143Z,59321.85
2022-10-02T03:33:03.223Z,59300.78
2022-10-02T03:34:06.192Z,59247.58
2022-10-02T03:35:09.482Z,59261.63
2022-10-02T03:36:13.495Z,59237.55
2022-10-02T03:37:16.373Z,59233.53
2022-10-02T03:38:19.330Z,59183.35
2022-10-02T03:39:26.296Z,59348.95
2022-10-02T03:40:26.432Z,59341.93
2022-10-02T03:41:29.090Z,59305.79
2022-10-02T03:42:31.953Z,59292.75
2022-10-02T03:43:35.044Z,59263.64
2022-10-02T03:44:38.213Z,59262.64
2022-10-02T03:45:50.881Z,59339.92
2022-10-02T03:46:45.946Z,59381.07
2022-10-02T03:47:49.734Z,59334.90
2022-10-02T03:48:53.007Z,59386.09
2022-10-02T03:49:56.813Z,59366.01
2022-10-02T03:51:07.762Z,59353.97
2022-10-02T03:52:10.445Z,59347.95
2022-10-02T03:53:13.921Z,59257.62
2022-10-02T03:54:16.510Z,59204.43
2022-10-02T03:55:19.769Z,59177.33
2022-10-02T03:56:22.644Z,59201.42
2022-10-02T03:57:25.834Z,59197.40
2022-10-02T03:58:28.934Z,59226.51
2022-10-02T03:59:32.501Z,59231.53
2022-10-02T04:00:35.475Z,59180.34
2022-10-02T04:01:38.426Z,59132.17
2022-10-02T04:02:41.324Z,59169.30
2022-10-02T04:03:44.342Z,59059.91
2022-10-02T04:04:47.405Z,59146.22
2022-10-02T04:05:50.670Z,59109.09
2022-10-02T04:06:53.554Z,58974.61
2022-10-02T04:07:56.421Z,58934.46
2022-10-02T04:08:59.094Z,58828.09
2022-10-02T04:10:01.967Z,58762.86
2022-10-02T04:11:04.839Z,58543.11
2022-10-02T04:12:08.340Z,58472.87
2022-10-02T04:13:11.289Z,58352.46
2022-10-02T04:14:16.949Z,58308.31
2022-10-02T04:15:20.023Z,58167.84
2022-10-02T04:16:23.270Z,58109.64
2022-10-02T04:17:26.294Z,58029.38
2022-10-02T04:18:29.771Z,57975.20
2022-10-02T04:19:32.846Z,57899.95
2022-10-02T04:20:35.948Z,57826.71
2022-10-02T04:21:39.100Z,57595.97
2022-10-02T04:22:41.999Z,57531.77
2022-10-02T04:23:44.901Z,57447.50
2022-10-02T04:24:47.648Z,57365.24
2022-10-02T04:25:51.006Z,57257.90
2022-10-02T04:26:53.786Z,57296.02
2022-10-02T04:27:56.853Z,57276.96
2022-10-02T04:28:59.460Z,57389.31
2022-10-02T04:30:02.112Z,57343.17
2022-10-02T04:31:05.612Z,57241.85
2022-10-02T04:32:08.587Z,57176.65
2022-10-02T04:33:11.659Z,57188.69
2022-10-02T04:34:14.534Z,57222.79
2022-10-02T04:35:17.210Z,57291.01
2022-10-02T04:36:20.373Z,57273.95
2022-10-02T04:37:23.058Z,57397.34
2022-10-02T04:38:25.841Z,57432.45
2022-10-02T04:39:29.011Z,57433.45
2022-10-02T04:40:32.115Z,57499.66
2022-10-02T04:41:40.267Z,57658.17
2022-10-02T04:42:43.589Z,57653.15
2022-10-02T04:43:46.542Z,57715.35
2022-10-02T04:44:49.424Z,57643.12
2022-10-02T04:45:52.796Z,57662.18
2022-10-02T04:46:55.584Z,57689.27
2022-10-02T04:47:58.673Z,57747.45
2022-10-02T04:49:01.424Z,57656.16
2022-10-02T04:50:04.208Z,57682.25
2022-10-02T04:51:07.093Z,57577.91
2022-10-02T04:52:09.852Z,57515.71
2022-10-02T04:53:12.841Z,57566.87
2022-10-02T04:54:15.819Z,57491.64
2022-10-02T04:55:18.784Z,57557.85
2022-10-02T04:56:21.862Z,57473.58
2022-10-02T04:57:27.408Z,57479.60
2022-10-02T04:58:30.905Z,57536.78
2022-10-02T04:59:33.967Z,57602.99
2022-10-02T05:00:36.711Z,57696.29
2022-10-02T05:01:44.705Z,57757.49
2022-10-02T05:02:48.011Z,57703.31
2022-10-02T05:03:51.528Z,57714.35
2022-10-02T05:04:59.173Z,57734.41
2022-10-02T05:06:03.221Z,57722.37
2022-10-02T05:07:06.078Z,57767.52
2022-10-02T05:08:08.851Z,57770.53
2022-10-02T05:09:13.161Z,57677.23
2022-10-02T05:10:16.353Z,57697.29
2022-10-02T05:11:19.117Z,57811.66
2022-10-02T05:12:21.774Z,57879.89
2022-10-02T05:13:28.027Z,57837.75
2022-10-02T05:14:31.410Z,57795.61
2022-10-02T05:15:34.909Z,57721.37
2022-10-02T05:16:37.846Z,57788.59
2022-10-02T05:17:41.268Z,57922.02
2022-10-02T05:18:44.572Z,58036.40
2022-10-02T05:19:48.834Z,58222.02
2022-10-02T05:20:52.151Z,58248.11
2022-10-02T05:21:55.327Z,58046.43
2022-10-02T05:22:59.154Z,57922.02
2022-10-02T05:24:03.955Z,57902.96
2022-10-02T05:25:06.814Z,57910.99
2022-10-02T05:26:14.237Z,58025.36
2022-10-02T05:27:16.789Z,58093.59
2022-10-02T05:28:20.472Z,58114.66
2022-10-02T05:29:23.439Z,58050.45
2022-10-02T05:30:26.411Z,58023.36
2022-10-02T05:31:30.145Z,57985.23
2022-10-02T05:32:33.390Z,57964.16
2022-10-02T05:33:36.374Z,57986.23
2022-10-02T05:34:39.138Z,57954.13
2022-10-02T05:35:44.586Z,57764.51
2022-10-02T05:36:48.785Z,57714.35
2022-10-02T05:37:52.267Z,57779.56
2022-10-02T05:38:55.352Z,57738.43
2022-10-02T05:40:03.044Z,57798.62
2022-10-02T05:41:06.436Z,57771.54
2022-10-02T05:42:10.134Z,57698.30
2022-10-02T05:43:13.048Z,57746.45
2022-10-02T05:44:16.466Z,57823.70
2022-10-02T05:45:19.482Z,57931.05
2022-10-02T05:46:23.030Z,57845.77
2022-10-02T05:47:26.742Z,57838.75
2022-10-02T05:48:29.826Z,57874.87
2022-10-02T05:49:32.921Z,57902.96
2022-10-02T05:50:35.883Z,57925.03
2022-10-02T05:51:40.908Z,57949.11
2022-10-02T05:52:43.771Z,57903.96
2022-10-02T05:53:46.772Z,57907.98
2022-10-02T05:54:49.933Z,57835.74
2022-10-02T05:55:53.036Z,57874.87
2022-10-02T05:56:55.898Z,57772.54
2022-10-02T05:57:58.450Z,57620.05
2022-10-02T05:59:01.340Z,57595.97
2022-10-02T06:00:04.620Z,57627.07
2022-10-02T06:01:12.289Z,57545.81
2022-10-02T06:02:15.875Z,57529.76
2022-10-02T06:03:18.772Z,57421.41
2022-10-02T06:04:22.375Z,57393.33
2022-10-02T06:05:25.451Z,57489.63
2022-10-02T06:06:28.925Z,57449.50
2022-10-02T06:07:31.908Z,57300.04
2022-10-02T06:08:35.141Z,57340.16
2022-10-02T06:09:40.952Z,57299.03
2022-10-02T06:10:44.550Z,57305.05
2022-10-02T06:11:47.717Z,57373.27
2022-10-02T06:12:52.761Z,57345.18
2022-10-02T06:13:58.091Z,57331.13
2022-10-02T06:15:02.389Z,57405.36
2022-10-02T06:16:08.571Z,57393.33
2022-10-02T06:17:11.624Z,57359.22
2022-10-02T06:18:14.363Z,57371.26
2022-10-02T06:19:17.456Z,57360.22
2022-10-02T06:20:20.844Z,57319.09
2022-10-02T06:21:24.230Z,57305.05
2022-10-02T06:22:28.950Z,57353.20
2022-10-02T06:23:31.612Z,57319.09
2022-10-02T06:24:34.821Z,57267.93
2022-10-02T06:25:37.680Z,57260.91
2022-10-02T06:26:40.664Z,57277.96
2022-10-02T06:27:43.813Z,57236.84
2022-10-02T06:28:47.505Z,57239.85
2022-10-02T06:29:52.045Z,57170.63
2022-10-02T06:30:55.406Z,57272.95
2022-10-02T06:32:02.696Z,57282.98
2022-10-02T06:33:05.968Z,57425.43
2022-10-02T06:34:09.164Z,57484.62
2022-10-02T06:35:12.443Z,57503.68
2022-10-02T06:36:16.747Z,57524.74
2022-10-02T06:37:23.204Z,57571.89
2022-10-02T06:38:26.493Z,57616.03
2022-10-02T06:39:36.235Z,57594.96
2022-10-02T06:40:39.420Z,57566.87
2022-10-02T06:41:42.801Z,57605.00
2022-10-02T06:42:46.291Z,57557.85
2022-10-02T06:43:51.910Z,57539.79
2022-10-02T06:44:58.491Z,57564.87
2022-10-02T06:46:03.230Z,57470.57
2022-10-02T06:47:07.107Z,57413.39
2022-10-02T06:48:10.488Z,57479.60
2022-10-02T06:49:13.867Z,57511.70
2022-10-02T06:50:24.267Z,57501.67
2022-10-02T06:51:27.417Z,57560.86
2022-10-02T06:52:35.738Z,57577.91
2022-10-02T06:53:44.394Z,57595.97
2022-10-02T06:54:47.913Z,57610.01
2022-10-02T06:55:51.702Z,57628.07
2022-10-02T06:56:54.894Z,57688.27
2022-10-02T06:57:58.373Z,57705.32
2022-10-02T06:59:02.074Z,57768.52
2022-10-02T07:00:05.370Z,57872.86
2022-10-02T07:01:09.240Z,57832.73
2022-10-02T07:02:13.424Z,57854.80
2022-10-02T07:03:17.162Z,57844.77
2022-10-02T07:04:20.839Z,57924.03
2022-10-02T07:05:23.526Z,58004.29
2022-10-02T07:06:27.110Z,57996.27
2022-10-02T07:07:30.813Z,57965.16
2022-10-02T07:08:34.291Z,57944.09
2022-10-02T07:09:37.783Z,57961.15
2022-10-02T07:10:40.856Z,58016.33
2022-10-02T07:11:44.275Z,58031.38
2022-10-02T07:12:49.193Z,58008.31
2022-10-02T07:13:52.873Z,58076.53
2022-10-02T07:14:56.367Z,58097.60
2022-10-02T07:16:01.238Z,58101.62
2022-10-02T07:17:06.101Z,58159.81
2022-10-02T07:18:09.274Z,58146.77
2022-10-02T07:19:12.558Z,58226.03
2022-10-02T07:20:15.846Z,58249.11
2022-10-02T07:21:19.022Z,58268.17
2022-10-02T07:22:43.372Z,58350.45
2022-10-02T07:23:27.331Z,58365.50
2022-10-02T07:24:30.618Z,58409.65
2022-10-02T07:25:34.107Z,58503.97
2022-10-02T07:26:37.586Z,58455.80
2022-10-02T07:27:41.403Z,58577.22
2022-10-02T07:28:44.991Z,58615.35
2022-10-02T07:29:48.880Z,58697.64
2022-10-02T07:30:52.160Z,58715.70
2022-10-02T07:31:56.142Z,58790.96
2022-10-02T07:32:59.145Z,58847.16
2022-10-02T07:34:02.950Z,58898.34
2022-10-02T07:35:06.944Z,58849.17
2022-10-02T07:36:09.922Z,58898.34
2022-10-02T07:37:13.222Z,58930.45
2022-10-02T07:38:16.594Z,58922.43
2022-10-02T07:39:20.084Z,58962.57
2022-10-02T07:40:23.370Z,58987.66
2022-10-02T07:41:26.348Z,59051.88
2022-10-02T07:42:30.061Z,59092.03
2022-10-02T07:43:33.214Z,59149.23
2022-10-02T07:44:38.342Z,59179.34
2022-10-02T07:45:41.682Z,59246.58
2022-10-02T07:46:44.820Z,59138.19
2022-10-02T07:47:47.894Z,59197.40
2022-10-02T07:48:51.796Z,59234.54
2022-10-02T07:49:55.476Z,59257.62
2022-10-02T07:50:58.765Z,59262.64
2022-10-02T07:52:01.940Z,59286.73
2022-10-02T07:53:04.835Z,59333.89
2022-10-02T07:54:08.306Z,59355.98
2022-10-02T07:55:12.110Z,59376.05
2022-10-02T07:56:15.693Z,59384.08
2022-10-02T07:57:19.184Z,59472.40
2022-10-02T07:58:22.374Z,59588.83
2022-10-02T07:59:25.759Z,59663.11
2022-10-02T08:00:28.949Z,59697.23
2022-10-02T08:01:31.521Z,59741.39
2022-10-02T08:02:34.631Z,59770.50
2022-10-02T08:03:37.742Z,59798.61
2022-10-02T08:04:41.256Z,59830.73
2022-10-02T08:05:44.742Z,59899.99
2022-10-02T08:06:47.747Z,59946.16
2022-10-02T08:07:51.330Z,60009.41
2022-10-02T08:08:54.351Z,60019.44
2022-10-02T08:09:57.805Z,60043.54
2022-10-02T08:11:03.452Z,60126.85
2022-10-02T08:12:06.428Z,60173.03
2022-10-02T08:13:15.149Z,60242.30
2022-10-02T08:14:18.621Z,60331.64
2022-10-02T08:15:21.889Z,60421.99
2022-10-02T08:16:25.009Z,60449.10
2022-10-02T08:17:28.030Z,60460.14
2022-10-02T08:18:34.667Z,60549.49
2022-10-02T08:19:37.882Z,60600.69
2022-10-02T08:20:41.370Z,60611.74
2022-10-02T08:21:44.762Z,60652.90
2022-10-02T08:22:48.974Z,60670.97
2022-10-02T08:23:52.969Z,60710.13
2022-10-02T08:24:56.348Z,60740.25
2022-10-02T08:26:00.248Z,60746.27
2022-10-02T08:27:04.353Z,60786.43
2022-10-02T08:28:08.223Z,60819.56
2022-10-02T08:29:11.221Z,60824.58
2022-10-02T08:30:14.515Z,60816.55
2022-10-02T08:31:18.257Z,60811.53
2022-10-02T08:32:21.800Z,60863.74
2022-10-02T08:33:25.291Z,60885.83
2022-10-02T08:34:29.493Z,60885.83
2022-10-02T08:35:35.644Z,60915.95
2022-10-02T08:36:39.565Z,60916.96
2022-10-02T08:37:46.016Z,60935.03
2022-10-02T08:38:53.836Z,60988.24
2022-10-02T08:39:53.595Z,60987.24
2022-10-02T08:40:57.006Z,61000.29
2022-10-02T08:42:00.380Z,60992.26
2022-10-02T08:43:04.170Z,61009.33
2022-10-02T08:44:07.344Z,60968.16
2022-10-02T08:45:10.939Z,61086.64
2022-10-02T08:46:14.788Z,61089.65
2022-10-02T08:47:17.918Z,61109.73
2022-10-02T08:48:23.978Z,61124.80
2022-10-02T08:49:27.159Z,61111.75
2022-10-02T08:50:30.486Z,61146.89
2022-10-02T08:51:33.624Z,61159.94
2022-10-02T08:52:37.524Z,61153.91
2022-10-02T08:53:40.501Z,61173.00
2022-10-02T08:54:44.085Z,61191.07
2022-10-02T08:55:47.066Z,61159.94
2022-10-02T08:56:50.134Z,61193.07
2022-10-02T08:57:53.733Z,61154.92
2022-10-02T08:58:57.229Z,61201.11
2022-10-02T09:00:01.416Z,61140.86
2022-10-02T09:01:04.512Z,61146.89
2022-10-02T09:02:07.623Z,61183.04
2022-10-02T09:03:11.589Z,61191.07
2022-10-02T09:04:14.870Z,61211.15
2022-10-02T09:05:17.842Z,61184.04
2022-10-02T09:06:21.127Z,61247.30
2022-10-02T09:07:28.083Z,61261.36
2022-10-02T09:08:28.827Z,61261.36
2022-10-02T09:09:31.914Z,61246.29
2022-10-02T09:10:34.987Z,61283.45
2022-10-02T09:11:38.167Z,61321.61
2022-10-02T09:12:41.555Z,61318.59
2022-10-02T09:13:44.731Z,61325.62
2022-10-02T09:14:48.543Z,61326.62
2022-10-02T09:15:51.743Z,61239.27
2022-10-02T09:16:54.999Z,61213.16
2022-10-02T09:17:58.172Z,61208.14
2022-10-02T09:19:01.602Z,61213.16
2022-10-02T09:20:05.240Z,61145.88
2022-10-02T09:21:11.539Z,61061.54
2022-10-02T09:22:13.649Z,61000.29
2022-10-02T09:23:17.996Z,60960.13
2022-10-02T09:24:21.483Z,60907.92
2022-10-02T09:25:24.861Z,60837.64
2022-10-02T09:26:28.761Z,60880.81
2022-10-02T09:27:31.651Z,60849.68
2022-10-02T09:28:34.862Z,60848.68
2022-10-02T09:29:38.203Z,60862.74
2022-10-02T09:30:42.319Z,60837.64
2022-10-02T09:31:46.073Z,60865.75
2022-10-02T09:32:49.283Z,60852.70
2022-10-02T09:33:52.242Z,60850.69
2022-10-02T09:34:55.230Z,60875.79
2022-10-02T09:35:58.403Z,60893.86
2022-10-02T09:37:01.695Z,60865.75
2022-10-02T09:38:05.404Z,60857.72
2022-10-02T09:39:09.292Z,60888.84
2022-10-02T09:40:12.470Z,60879.80
2022-10-02T09:41:15.449Z,60875.79
2022-10-02T09:42:19.134Z,60863.74
2022-10-02T09:43:21.922Z,60869.77
2022-10-02T09:44:25.097Z,60887.84
2022-10-02T09:45:28.930Z,60866.75
2022-10-02T09:46:32.074Z,60911.93
2022-10-02T09:47:35.156Z,60895.87
2022-10-02T09:48:39.162Z,60889.85
2022-10-02T09:49:43.762Z,60887.84
2022-10-02T09:50:48.488Z,60890.85
2022-10-02T09:51:52.090Z,60929.00
2022-10-02T09:52:55.167Z,60886.84
2022-10-02T09:53:58.361Z,60897.88
2022-10-02T09:55:04.802Z,60897.88
2022-10-02T09:56:08.501Z,60898.88
2022-10-02T09:57:11.580Z,60887.84
2022-10-02T09:58:14.541Z,60940.05
2022-10-02T09:59:17.648Z,60889.85
2022-10-02T10:00:21.419Z,60912.94
2022-10-02T10:01:25.690Z,60927.00
2022-10-02T10:02:29.044Z,60928.00
2022-10-02T10:03:31.992Z,60951.09
2022-10-02T10:05:00.899Z,60957.12
2022-10-02T10:05:39.802Z,60954.11
2022-10-02T10:06:43.490Z,60985.23
2022-10-02T10:07:47.695Z,60995.27
2022-10-02T10:08:51.698Z,61008.32
2022-10-02T10:09:55.171Z,60971.17
2022-10-02T10:10:58.574Z,60978.20
2022-10-02T10:12:01.963Z,60950.09
2022-10-02T10:13:04.950Z,60946.07
2022-10-02T10:14:08.249Z,60979.21
2022-10-02T10:15:11.288Z,60952.10
2022-10-02T10:16:14.265Z,60960.13
2022-10-02T10:17:17.860Z,60970.17
2022-10-02T10:18:21.351Z,60941.05
2022-10-02T10:19:24.444Z,60915.95
2022-10-02T10:20:27.820Z,60944.06
2022-10-02T10:21:31.615Z,60897.88
2022-10-02T10:22:34.479Z,60945.07
2022-10-02T10:23:38.499Z,60908.92
2022-10-02T10:24:42.181Z,60897.88
2022-10-02T10:25:44.964Z,60901.89
2022-10-02T10:26:53.476Z,60897.88
2022-10-02T10:27:56.285Z,60889.85
2022-10-02T10:29:00.077Z,60899.89
2022-10-02T10:30:03.254Z,60899.89
2022-10-02T10:31:08.538Z,60902.90
2022-10-02T10:32:12.032Z,60915.95
2022-10-02T10:33:15.108Z,60867.76
2022-10-02T10:34:18.237Z,60879.80
2022-10-02T10:35:21.982Z,60913.94
2022-10-02T10:36:25.180Z,60899.89
2022-10-02T10:37:28.344Z,60879.80
2022-10-02T10:38:31.432Z,60866.75
2022-10-02T10:39:34.508Z,60877.80
2022-10-02T10:40:38.107Z,60895.87
2022-10-02T10:41:41.294Z,60886.84
2022-10-02T10:43:05.936Z,60945.07
2022-10-02T10:43:49.274Z,60878.80
2022-10-02T10:44:52.571Z,60920.97
2022-10-02T10:45:56.323Z,60948.08
2022-10-02T10:46:59.195Z,60929.00
2022-10-02T10:48:03.250Z,60911.93
2022-10-02T10:49:06.422Z,60900.89
2022-10-02T10:50:09.711Z,60858.72
2022-10-02T10:51:13.511Z,60839.64
2022-10-02T10:52:16.931Z,60818.56
2022-10-02T10:53:22.938Z,60837.64
2022-10-02T10:54:26.023Z,60825.59
2022-10-02T10:55:29.506Z,60847.68
2022-10-02T10:56:32.900Z,60809.52
2022-10-02T10:57:36.390Z,60784.42
2022-10-02T10:58:39.253Z,60767.36
2022-10-02T10:59:43.060Z,60745.27
2022-10-02T11:00:46.432Z,60808.52
2022-10-02T11:01:49.636Z,60816.55
2022-10-02T11:02:53.534Z,60817.55
2022-10-02T11:03:56.614Z,60822.57
2022-10-02T11:04:59.891Z,60796.47
2022-10-02T11:06:02.776Z,60835.63
2022-10-02T11:07:05.864Z,60857.72
2022-10-02T11:08:09.948Z,60910.93
2022-10-02T11:09:13.034Z,60890.85
2022-10-02T11:10:16.203Z,60918.96
2022-10-02T11:11:21.869Z,60940.05
2022-10-02T11:12:26.775Z,60921.98
2022-10-02T11:13:30.448Z,60925.99
2022-10-02T11:14:33.530Z,60952.10
2022-10-02T11:15:40.292Z,60936.03
2022-10-02T11:16:44.191Z,60938.04
2022-10-02T11:17:47.005Z,60908.92
2022-10-02T11:18:50.363Z,60871.77
2022-10-02T11:19:53.863Z,60894.87
2022-10-02T11:20:56.735Z,60875.79
2022-10-02T11:21:59.914Z,60897.88
2022-10-02T11:23:03.709Z,60839.64
2022-10-02T11:24:06.772Z,60886.84
2022-10-02T11:25:13.202Z,60741.25
2022-10-02T11:26:16.336Z,60710.13
2022-10-02T11:27:19.294Z,60666.96
2022-10-02T11:28:23.045Z,60645.87
2022-10-02T11:29:25.995Z,60516.36
2022-10-02T11:30:28.964Z,60170.02
2022-10-02T11:31:32.208Z,60110.79
2022-10-02T11:32:35.212Z,60041.53
2022-10-02T11:33:38.286Z,60015.43
2022-10-02T11:34:41.882Z,59964.23
2022-10-02T11:35:45.384Z,59843.78
2022-10-02T11:36:48.746Z,59785.56
2022-10-02T11:37:51.745Z,59685.18
2022-10-02T11:38:55.009Z,59600.87
2022-10-02T11:39:58.724Z,59393.11
2022-10-02T11:41:02.607Z,59214.46
2022-10-02T11:42:06.187Z,58988.66
2022-10-02T11:43:09.591Z,58763.87
2022-10-02T11:44:12.975Z,58599.30
2022-10-02T11:45:17.900Z,58374.53
2022-10-02T11:46:21.195Z,58205.96
2022-10-02T11:47:26.111Z,58045.43
2022-10-02T11:48:29.280Z,57866.84
2022-10-02T11:49:32.484Z,57698.30
2022-10-02T11:50:36.378Z,57462.54
2022-10-02T11:51:40.081Z,56539.74
2022-10-02T11:52:48.113Z,55327.38
2022-10-02T11:53:49.293Z,55229.12
2022-10-02T11:54:52.572Z,55213.07
2022-10-02T11:55:56.170Z,55208.06
2022-10-02T11:56:59.156Z,55128.86
2022-10-02T11:58:03.376Z,55085.75
2022-10-02T11:59:06.929Z,55051.66
2022-10-02T12:00:10.111Z,55040.63
2022-10-02T12:01:15.048Z,54974.46
2022-10-02T12:02:18.857Z,54946.39
2022-10-02T12:03:22.380Z,54950.40
2022-10-02T12:04:25.613Z,54908.30
2022-10-02T12:05:28.699Z,54909.30
2022-10-02T12:06:31.896Z,54934.36
2022-10-02T12:07:35.578Z,54942.38
2022-10-02T12:08:39.383Z,54894.26
2022-10-02T12:09:42.628Z,54890.25
2022-10-02T12:10:46.153Z,54860.18
2022-10-02T12:11:49.649Z,54886.24
2022-10-02T12:12:53.125Z,54850.15
2022-10-02T12:13:56.799Z,54802.03
2022-10-02T12:15:00.205Z,54827.09
2022-10-02T12:16:03.896Z,54760.93
2022-10-02T12:17:06.975Z,54739.87
2022-10-02T12:18:15.333Z,54700.78
2022-10-02T12:19:18.269Z,54721.83
2022-10-02T12:20:21.852Z,54672.71
2022-10-02T12:21:25.130Z,54638.63
2022-10-02T12:22:28.623Z,54617.57
2022-10-02T12:23:31.375Z,54590.51
2022-10-02T12:24:35.282Z,54562.44
2022-10-02T12:25:38.888Z,54513.32